sensor_id;sensor_type;location;lat;lon;timestamp;temperature;humidity
38209;DHT22;24016;52.102;11.584;2023-04-24T00:00:54;11.40;99.90
38209;DHT22;24016;52.102;11.584;2023-04-24T00:03:23;11.40;99.90
38209;DHT22;24016;52.102;11.584;2023-04-24T00:05:49;11.40;99.90
38209;DHT22;24016;52.102;11.584;2023-04-24T00:08:15;11.50;99.90
38209;DHT22;24016;52.102;11.584;2023-04-24T00:10:41;11.50;99.90
38209;DHT22;24016;52.102;11.584;2023-04-24T00:13:06;11.50;99.90
38209;DHT22;24016;52.102;11.584;2023-04-24T00:15:32;11.60;99.90
38209;DHT22;24016;52.102;11.584;2023-04-24T00:17:58;11.50;99.90
38209;DHT22;24016;52.102;11.584;2023-04-24T00:20:23;11.50;99.90
38209;DHT22;24016;52.102;11.584;2023-04-24T00:22:49;11.60;99.90
38209;DHT22;24016;52.102;11.584;2023-04-24T00:25:14;11.50;99.90
38209;DHT22;24016;52.102;11.584;2023-04-24T00:27:40;11.60;99.90
38209;DHT22;24016;52.102;11.584;2023-04-24T00:30:06;11.60;99.90
38209;DHT22;24016;52.102;11.584;2023-04-24T00:32:32;11.60;99.90
38209;DHT22;24016;52.102;11.584;2023-04-24T00:34:57;11.60;99.90
38209;DHT22;24016;52.102;11.584;2023-04-24T00:37:23;11.60;99.90
38209;DHT22;24016;52.102;11.584;2023-04-24T00:39:49;11.60;99.90
38209;DHT22;24016;52.102;11.584;2023-04-24T00:42:14;11.50;99.90
38209;DHT22;24016;52.102;11.584;2023-04-24T00:44:40;11.50;99.90
38209;DHT22;24016;52.102;11.584;2023-04-24T00:47:06;11.50;99.90
38209;DHT22;24016;52.102;11.584;2023-04-24T00:49:32;11.50;99.90
38209;DHT22;24016;52.102;11.584;2023-04-24T00:51:57;11.60;99.90
38209;DHT22;24016;52.102;11.584;2023-04-24T00:54:24;11.70;99.90
38209;DHT22;24016;52.102;11.584;2023-04-24T00:56:51;11.80;99.90
38209;DHT22;24016;52.102;11.584;2023-04-24T00:59:17;11.90;99.90
38209;DHT22;24016;52.102;11.584;2023-04-24T01:01:44;11.90;99.90
38209;DHT22;24016;52.102;11.584;2023-04-24T01:04:11;12.00;99.90
38209;DHT22;24016;52.102;11.584;2023-04-24T01:06:39;12.00;99.90
38209;DHT22;24016;52.102;11.584;2023-04-24T01:09:05;12.10;99.90
38209;DHT22;24016;52.102;11.584;2023-04-24T01:11:33;12.00;99.90
38209;DHT22;24016;52.102;11.584;2023-04-24T01:13:59;12.10;99.90
38209;DHT22;24016;52.102;11.584;2023-04-24T01:16:25;12.00;99.90
38209;DHT22;24016;52.102;11.584;2023-04-24T01:18:51;12.00;99.90
38209;DHT22;24016;52.102;11.584;2023-04-24T01:21:18;12.00;99.90
38209;DHT22;24016;52.102;11.584;2023-04-24T01:23:45;11.90;99.90
38209;DHT22;24016;52.102;11.584;2023-04-24T01:26:12;11.80;99.90
38209;DHT22;24016;52.102;11.584;2023-04-24T01:28:38;11.80;99.90
38209;DHT22;24016;52.102;11.584;2023-04-24T01:36:27;11.60;99.90
38209;DHT22;24016;52.102;11.584;2023-04-24T01:38:54;11.60;99.90
38209;DHT22;24016;52.102;11.584;2023-04-24T01:41:19;11.50;99.90
38209;DHT22;24016;52.102;11.584;2023-04-24T01:43:45;11.50;99.90
38209;DHT22;24016;52.102;11.584;2023-04-24T01:46:11;11.40;99.90
38209;DHT22;24016;52.102;11.584;2023-04-24T01:48:36;11.40;99.90
38209;DHT22;24016;52.102;11.584;2023-04-24T01:51:02;11.40;99.90
38209;DHT22;24016;52.102;11.584;2023-04-24T01:53:28;11.30;99.90
38209;DHT22;24016;52.102;11.584;2023-04-24T01:55:53;11.20;99.90
38209;DHT22;24016;52.102;11.584;2023-04-24T01:58:19;11.20;99.90
38209;DHT22;24016;52.102;11.584;2023-04-24T02:00:44;11.10;99.90
38209;DHT22;24016;52.102;11.584;2023-04-24T02:03:10;11.10;99.90
38209;DHT22;24016;52.102;11.584;2023-04-24T02:05:35;11.10;99.90
38209;DHT22;24016;52.102;11.584;2023-04-24T02:08:01;11.00;99.90
38209;DHT22;24016;52.102;11.584;2023-04-24T02:10:26;11.00;99.90
38209;DHT22;24016;52.102;11.584;2023-04-24T02:12:52;10.90;99.90
38209;DHT22;24016;52.102;11.584;2023-04-24T02:15:17;10.80;99.90
38209;DHT22;24016;52.102;11.584;2023-04-24T02:17:43;10.60;99.90
38209;DHT22;24016;52.102;11.584;2023-04-24T02:20:08;10.60;99.90
38209;DHT22;24016;52.102;11.584;2023-04-24T02:22:34;10.50;99.90
38209;DHT22;24016;52.102;11.584;2023-04-24T02:25:00;10.50;99.90
38209;DHT22;24016;52.102;11.584;2023-04-24T02:27:26;10.50;99.90
38209;DHT22;24016;52.102;11.584;2023-04-24T02:29:51;10.30;99.90
38209;DHT22;24016;52.102;11.584;2023-04-24T02:32:17;10.30;99.90
38209;DHT22;24016;52.102;11.584;2023-04-24T02:34:42;10.20;99.90
38209;DHT22;24016;52.102;11.584;2023-04-24T02:37:08;10.10;99.90
38209;DHT22;24016;52.102;11.584;2023-04-24T02:39:33;10.10;99.90
38209;DHT22;24016;52.102;11.584;2023-04-24T02:41:59;10.00;99.90
38209;DHT22;24016;52.102;11.584;2023-04-24T02:44:25;10.00;99.90
38209;DHT22;24016;52.102;11.584;2023-04-24T02:46:50;9.90;99.90
38209;DHT22;24016;52.102;11.584;2023-04-24T02:49:17;9.90;99.90
38209;DHT22;24016;52.102;11.584;2023-04-24T02:51:43;9.90;99.90
38209;DHT22;24016;52.102;11.584;2023-04-24T02:54:08;9.80;99.90
38209;DHT22;24016;52.102;11.584;2023-04-24T02:56:35;9.80;99.90
38209;DHT22;24016;52.102;11.584;2023-04-24T02:59:01;9.70;99.90
38209;DHT22;24016;52.102;11.584;2023-04-24T03:01:26;9.70;99.90
38209;DHT22;24016;52.102;11.584;2023-04-24T03:03:52;9.70;99.90
38209;DHT22;24016;52.102;11.584;2023-04-24T03:06:17;9.70;99.90
38209;DHT22;24016;52.102;11.584;2023-04-24T03:08:43;9.70;99.90
38209;DHT22;24016;52.102;11.584;2023-04-24T03:11:09;9.70;99.90
38209;DHT22;24016;52.102;11.584;2023-04-24T03:13:34;9.70;99.90
38209;DHT22;24016;52.102;11.584;2023-04-24T03:16:00;9.70;99.90
38209;DHT22;24016;52.102;11.584;2023-04-24T03:18:25;9.60;99.90
38209;DHT22;24016;52.102;11.584;2023-04-24T03:20:51;9.60;99.90
38209;DHT22;24016;52.102;11.584;2023-04-24T03:23:16;9.50;99.90
38209;DHT22;24016;52.102;11.584;2023-04-24T03:25:42;9.50;99.90
38209;DHT22;24016;52.102;11.584;2023-04-24T03:28:08;9.40;99.90
38209;DHT22;24016;52.102;11.584;2023-04-24T03:30:33;9.40;99.90
38209;DHT22;24016;52.102;11.584;2023-04-24T03:33:00;9.30;99.90
38209;DHT22;24016;52.102;11.584;2023-04-24T03:35:25;9.20;99.90
38209;DHT22;24016;52.102;11.584;2023-04-24T03:37:51;9.20;99.90
38209;DHT22;24016;52.102;11.584;2023-04-24T03:40:17;9.10;99.90
38209;DHT22;24016;52.102;11.584;2023-04-24T03:42:42;9.00;99.90
38209;DHT22;24016;52.102;11.584;2023-04-24T03:45:08;8.90;99.90
38209;DHT22;24016;52.102;11.584;2023-04-24T03:47:34;9.00;99.90
38209;DHT22;24016;52.102;11.584;2023-04-24T03:50:00;8.90;99.90
38209;DHT22;24016;52.102;11.584;2023-04-24T03:52:25;8.90;99.90
38209;DHT22;24016;52.102;11.584;2023-04-24T03:54:51;8.90;99.90
38209;DHT22;24016;52.102;11.584;2023-04-24T03:57:16;8.80;99.90
38209;DHT22;24016;52.102;11.584;2023-04-24T03:59:42;8.80;99.90
38209;DHT22;24016;52.102;11.584;2023-04-24T04:02:07;8.80;99.90
38209;DHT22;24016;52.102;11.584;2023-04-24T04:04:33;8.80;99.90
38209;DHT22;24016;52.102;11.584;2023-04-24T04:06:58;8.70;99.90
38209;DHT22;24016;52.102;11.584;2023-04-24T04:09:26;8.70;99.90
38209;DHT22;24016;52.102;11.584;2023-04-24T04:11:52;8.70;99.90
38209;DHT22;24016;52.102;11.584;2023-04-24T04:14:17;8.70;99.90
38209;DHT22;24016;52.102;11.584;2023-04-24T04:16:43;8.60;99.90
38209;DHT22;24016;52.102;11.584;2023-04-24T04:19:09;8.60;99.90
38209;DHT22;24016;52.102;11.584;2023-04-24T04:21:34;8.60;99.90
38209;DHT22;24016;52.102;11.584;2023-04-24T04:24:00;8.50;99.90
38209;DHT22;24016;52.102;11.584;2023-04-24T04:26:25;8.60;99.90
38209;DHT22;24016;52.102;11.584;2023-04-24T04:28:52;8.50;99.90
38209;DHT22;24016;52.102;11.584;2023-04-24T04:31:21;8.60;99.90
38209;DHT22;24016;52.102;11.584;2023-04-24T04:33:46;8.60;99.90
38209;DHT22;24016;52.102;11.584;2023-04-24T04:36:12;8.70;99.90
38209;DHT22;24016;52.102;11.584;2023-04-24T04:38:37;8.80;99.90
38209;DHT22;24016;52.102;11.584;2023-04-24T04:41:03;8.90;99.90
38209;DHT22;24016;52.102;11.584;2023-04-24T04:43:29;9.00;99.90
38209;DHT22;24016;52.102;11.584;2023-04-24T04:45:57;9.10;99.90
38209;DHT22;24016;52.102;11.584;2023-04-24T04:48:22;9.20;99.90
38209;DHT22;24016;52.102;11.584;2023-04-24T04:50:48;9.30;99.90
38209;DHT22;24016;52.102;11.584;2023-04-24T04:53:14;9.40;99.90
38209;DHT22;24016;52.102;11.584;2023-04-24T04:55:40;9.60;99.90
38209;DHT22;24016;52.102;11.584;2023-04-24T04:58:06;9.70;99.90
38209;DHT22;24016;52.102;11.584;2023-04-24T05:00:31;9.80;99.90
38209;DHT22;24016;52.102;11.584;2023-04-24T05:03:01;10.00;99.90
38209;DHT22;24016;52.102;11.584;2023-04-24T05:05:27;10.20;99.90
38209;DHT22;24016;52.102;11.584;2023-04-24T05:07:53;10.30;99.90
38209;DHT22;24016;52.102;11.584;2023-04-24T05:10:19;10.40;99.90
38209;DHT22;24016;52.102;11.584;2023-04-24T05:12:44;10.50;99.90
38209;DHT22;24016;52.102;11.584;2023-04-24T05:15:10;10.60;99.90
38209;DHT22;24016;52.102;11.584;2023-04-24T05:17:36;10.70;99.90
38209;DHT22;24016;52.102;11.584;2023-04-24T05:20:02;10.90;99.90
38209;DHT22;24016;52.102;11.584;2023-04-24T05:22:31;11.00;99.90
38209;DHT22;24016;52.102;11.584;2023-04-24T05:24:56;11.20;99.90
38209;DHT22;24016;52.102;11.584;2023-04-24T05:27:22;11.40;99.90
38209;DHT22;24016;52.102;11.584;2023-04-24T05:29:48;11.50;99.90
38209;DHT22;24016;52.102;11.584;2023-04-24T05:32:14;11.60;99.90
38209;DHT22;24016;52.102;11.584;2023-04-24T05:34:39;11.70;99.90
38209;DHT22;24016;52.102;11.584;2023-04-24T05:37:05;11.60;99.90
38209;DHT22;24016;52.102;11.584;2023-04-24T05:39:33;11.70;99.90
38209;DHT22;24016;52.102;11.584;2023-04-24T05:41:59;11.70;99.90
38209;DHT22;24016;52.102;11.584;2023-04-24T05:44:26;11.60;99.90
38209;DHT22;24016;52.102;11.584;2023-04-24T05:46:52;11.60;99.90
38209;DHT22;24016;52.102;11.584;2023-04-24T05:49:18;11.60;99.90
38209;DHT22;24016;52.102;11.584;2023-04-24T05:51:43;11.60;99.90
38209;DHT22;24016;52.102;11.584;2023-04-24T05:54:09;11.60;99.90
38209;DHT22;24016;52.102;11.584;2023-04-24T05:56:35;11.70;99.90
38209;DHT22;24016;52.102;11.584;2023-04-24T05:59:01;11.70;99.90
38209;DHT22;24016;52.102;11.584;2023-04-24T06:01:27;11.70;99.90
38209;DHT22;24016;52.102;11.584;2023-04-24T06:03:52;11.80;99.90
38209;DHT22;24016;52.102;11.584;2023-04-24T06:06:18;11.80;99.90
38209;DHT22;24016;52.102;11.584;2023-04-24T06:08:44;11.80;99.90
38209;DHT22;24016;52.102;11.584;2023-04-24T06:11:10;11.80;99.90
38209;DHT22;24016;52.102;11.584;2023-04-24T06:13:36;11.90;99.90
38209;DHT22;24016;52.102;11.584;2023-04-24T06:16:01;12.10;99.90
38209;DHT22;24016;52.102;11.584;2023-04-24T06:18:27;12.20;99.90
38209;DHT22;24016;52.102;11.584;2023-04-24T06:20:52;12.30;99.90
38209;DHT22;24016;52.102;11.584;2023-04-24T06:23:18;12.40;99.90
38209;DHT22;24016;52.102;11.584;2023-04-24T06:25:44;12.50;99.90
38209;DHT22;24016;52.102;11.584;2023-04-24T06:28:09;12.40;99.90
38209;DHT22;24016;52.102;11.584;2023-04-24T06:30:35;12.40;99.90
38209;DHT22;24016;52.102;11.584;2023-04-24T06:33:00;12.50;99.90
38209;DHT22;24016;52.102;11.584;2023-04-24T06:35:26;12.50;99.90
38209;DHT22;24016;52.102;11.584;2023-04-24T06:37:51;12.60;99.90
38209;DHT22;24016;52.102;11.584;2023-04-24T06:40:17;12.60;99.90
38209;DHT22;24016;52.102;11.584;2023-04-24T06:42:44;12.70;99.90
38209;DHT22;24016;52.102;11.584;2023-04-24T06:45:09;13.00;99.90
38209;DHT22;24016;52.102;11.584;2023-04-24T06:47:35;13.30;99.90
38209;DHT22;24016;52.102;11.584;2023-04-24T06:50:01;13.70;99.90
38209;DHT22;24016;52.102;11.584;2023-04-24T06:52:27;13.80;99.90
38209;DHT22;24016;52.102;11.584;2023-04-24T06:54:52;14.20;99.90
38209;DHT22;24016;52.102;11.584;2023-04-24T06:57:18;14.50;99.90
38209;DHT22;24016;52.102;11.584;2023-04-24T06:59:44;14.70;99.90
38209;DHT22;24016;52.102;11.584;2023-04-24T07:02:09;15.10;99.90
38209;DHT22;24016;52.102;11.584;2023-04-24T07:04:36;15.30;99.90
38209;DHT22;24016;52.102;11.584;2023-04-24T07:07:02;15.30;99.90
38209;DHT22;24016;52.102;11.584;2023-04-24T07:09:27;15.20;99.90
38209;DHT22;24016;52.102;11.584;2023-04-24T07:11:53;15.00;99.90
38209;DHT22;24016;52.102;11.584;2023-04-24T07:14:19;15.10;99.90
38209;DHT22;24016;52.102;11.584;2023-04-24T07:16:45;15.10;99.90
38209;DHT22;24016;52.102;11.584;2023-04-24T07:19:11;15.30;99.90
38209;DHT22;24016;52.102;11.584;2023-04-24T07:21:37;15.60;99.90
38209;DHT22;24016;52.102;11.584;2023-04-24T07:24:03;15.50;99.90
38209;DHT22;24016;52.102;11.584;2023-04-24T07:26:30;15.40;99.90
38209;DHT22;24016;52.102;11.584;2023-04-24T07:28:55;15.20;99.90
38209;DHT22;24016;52.102;11.584;2023-04-24T07:31:21;14.90;99.90
38209;DHT22;24016;52.102;11.584;2023-04-24T07:33:47;14.90;99.90
38209;DHT22;24016;52.102;11.584;2023-04-24T07:36:13;15.50;99.90
38209;DHT22;24016;52.102;11.584;2023-04-24T07:38:42;16.20;99.90
38209;DHT22;24016;52.102;11.584;2023-04-24T07:41:08;15.90;99.90
38209;DHT22;24016;52.102;11.584;2023-04-24T07:43:34;15.40;99.90
38209;DHT22;24016;52.102;11.584;2023-04-24T07:46:00;15.00;99.90
38209;DHT22;24016;52.102;11.584;2023-04-24T07:48:26;14.80;99.90
38209;DHT22;24016;52.102;11.584;2023-04-24T07:50:52;14.50;99.90
38209;DHT22;24016;52.102;11.584;2023-04-24T07:53:17;14.30;99.90
38209;DHT22;24016;52.102;11.584;2023-04-24T07:55:43;14.40;99.90
38209;DHT22;24016;52.102;11.584;2023-04-24T07:58:09;14.40;99.90
38209;DHT22;24016;52.102;11.584;2023-04-24T08:00:34;14.50;99.90
38209;DHT22;24016;52.102;11.584;2023-04-24T08:03:00;14.30;99.90
38209;DHT22;24016;52.102;11.584;2023-04-24T08:05:26;14.10;99.90
38209;DHT22;24016;52.102;11.584;2023-04-24T08:07:53;13.90;99.90
38209;DHT22;24016;52.102;11.584;2023-04-24T08:10:20;13.80;99.90
38209;DHT22;24016;52.102;11.584;2023-04-24T08:12:46;13.80;99.90
38209;DHT22;24016;52.102;11.584;2023-04-24T08:15:12;13.80;99.90
38209;DHT22;24016;52.102;11.584;2023-04-24T08:17:37;13.80;99.90
38209;DHT22;24016;52.102;11.584;2023-04-24T08:20:04;13.90;99.90
38209;DHT22;24016;52.102;11.584;2023-04-24T08:22:30;14.40;99.90
38209;DHT22;24016;52.102;11.584;2023-04-24T08:24:58;14.70;99.90
38209;DHT22;24016;52.102;11.584;2023-04-24T08:27:23;14.80;99.90
38209;DHT22;24016;52.102;11.584;2023-04-24T08:29:49;14.90;99.90
38209;DHT22;24016;52.102;11.584;2023-04-24T08:32:15;15.90;99.90
38209;DHT22;24016;52.102;11.584;2023-04-24T08:34:41;17.10;99.90
38209;DHT22;24016;52.102;11.584;2023-04-24T08:37:06;17.70;99.90
38209;DHT22;24016;52.102;11.584;2023-04-24T08:39:32;18.20;99.90
38209;DHT22;24016;52.102;11.584;2023-04-24T08:41:58;17.90;99.90
38209;DHT22;24016;52.102;11.584;2023-04-24T08:44:32;17.10;99.90
38209;DHT22;24016;52.102;11.584;2023-04-24T08:46:58;16.80;99.90
38209;DHT22;24016;52.102;11.584;2023-04-24T08:49:24;16.70;99.90
38209;DHT22;24016;52.102;11.584;2023-04-24T08:51:50;16.40;99.90
38209;DHT22;24016;52.102;11.584;2023-04-24T08:54:18;16.50;99.90
38209;DHT22;24016;52.102;11.584;2023-04-24T08:56:44;16.70;99.90
38209;DHT22;24016;52.102;11.584;2023-04-24T08:59:10;17.30;99.90
38209;DHT22;24016;52.102;11.584;2023-04-24T09:01:37;18.10;99.90
38209;DHT22;24016;52.102;11.584;2023-04-24T09:04:06;19.00;99.90
38209;DHT22;24016;52.102;11.584;2023-04-24T09:06:32;19.40;99.90
38209;DHT22;24016;52.102;11.584;2023-04-24T09:09:02;19.10;99.90
38209;DHT22;24016;52.102;11.584;2023-04-24T09:11:31;19.40;99.90
38209;DHT22;24016;52.102;11.584;2023-04-24T09:13:57;19.70;99.90
38209;DHT22;24016;52.102;11.584;2023-04-24T09:16:25;19.50;99.90
38209;DHT22;24016;52.102;11.584;2023-04-24T09:18:52;19.00;99.90
38209;DHT22;24016;52.102;11.584;2023-04-24T09:21:20;18.30;99.90
38209;DHT22;24016;52.102;11.584;2023-04-24T09:23:46;17.90;99.90
38209;DHT22;24016;52.102;11.584;2023-04-24T09:26:22;17.90;99.90
38209;DHT22;24016;52.102;11.584;2023-04-24T09:28:48;18.20;99.90
38209;DHT22;24016;52.102;11.584;2023-04-24T09:31:15;18.10;99.90
38209;DHT22;24016;52.102;11.584;2023-04-24T09:34:04;18.00;99.90
38209;DHT22;24016;52.102;11.584;2023-04-24T09:36:32;17.90;99.90
38209;DHT22;24016;52.102;11.584;2023-04-24T09:39:04;16.60;99.90
38209;DHT22;24016;52.102;11.584;2023-04-24T09:41:31;15.40;99.90
38209;DHT22;24016;52.102;11.584;2023-04-24T09:44:10;14.60;99.90
38209;DHT22;24016;52.102;11.584;2023-04-24T09:46:35;14.00;99.90
38209;DHT22;24016;52.102;11.584;2023-04-24T09:49:09;13.60;99.90
38209;DHT22;24016;52.102;11.584;2023-04-24T09:51:37;13.30;99.90
38209;DHT22;24016;52.102;11.584;2023-04-24T09:54:04;13.10;99.90
38209;DHT22;24016;52.102;11.584;2023-04-24T09:56:33;12.90;99.90
38209;DHT22;24016;52.102;11.584;2023-04-24T09:59:06;13.00;99.90
38209;DHT22;24016;52.102;11.584;2023-04-24T10:01:33;13.10;99.90
38209;DHT22;24016;52.102;11.584;2023-04-24T10:03:58;13.60;99.90
38209;DHT22;24016;52.102;11.584;2023-04-24T10:06:33;13.80;99.90
38209;DHT22;24016;52.102;11.584;2023-04-24T10:08:59;14.10;99.90
38209;DHT22;24016;52.102;11.584;2023-04-24T10:11:28;14.30;99.90
38209;DHT22;24016;52.102;11.584;2023-04-24T10:13:54;14.80;99.90
38209;DHT22;24016;52.102;11.584;2023-04-24T10:16:21;15.50;99.90
38209;DHT22;24016;52.102;11.584;2023-04-24T10:18:48;16.10;99.90
38209;DHT22;24016;52.102;11.584;2023-04-24T10:21:15;16.70;99.90
38209;DHT22;24016;52.102;11.584;2023-04-24T10:23:42;17.00;99.90
38209;DHT22;24016;52.102;11.584;2023-04-24T10:26:09;16.80;99.90
38209;DHT22;24016;52.102;11.584;2023-04-24T10:28:36;16.70;99.90
38209;DHT22;24016;52.102;11.584;2023-04-24T10:31:02;16.50;99.90
38209;DHT22;24016;52.102;11.584;2023-04-24T10:33:29;16.10;99.90
38209;DHT22;24016;52.102;11.584;2023-04-24T10:35:55;16.00;99.90
38209;DHT22;24016;52.102;11.584;2023-04-24T10:38:26;16.00;99.90
38209;DHT22;24016;52.102;11.584;2023-04-24T10:41:13;16.40;99.90
38209;DHT22;24016;52.102;11.584;2023-04-24T10:43:45;16.60;99.90
38209;DHT22;24016;52.102;11.584;2023-04-24T10:46:18;17.00;99.90
38209;DHT22;24016;52.102;11.584;2023-04-24T10:48:55;17.40;99.90
38209;DHT22;24016;52.102;11.584;2023-04-24T10:51:24;18.60;99.90
38209;DHT22;24016;52.102;11.584;2023-04-24T10:54:22;19.80;99.90
38209;DHT22;24016;52.102;11.584;2023-04-24T10:56:49;19.80;99.90
38209;DHT22;24016;52.102;11.584;2023-04-24T10:59:24;19.20;99.90
38209;DHT22;24016;52.102;11.584;2023-04-24T11:01:54;18.90;99.90
38209;DHT22;24016;52.102;11.584;2023-04-24T11:04:32;19.10;99.00
38209;DHT22;24016;52.102;11.584;2023-04-24T11:06:58;18.40;99.80
38209;DHT22;24016;52.102;11.584;2023-04-24T11:09:27;18.00;99.90
38209;DHT22;24016;52.102;11.584;2023-04-24T11:12:03;17.80;99.90
38209;DHT22;24016;52.102;11.584;2023-04-24T11:14:59;17.70;99.90
38209;DHT22;24016;52.102;11.584;2023-04-24T11:20:08;16.70;99.90
38209;DHT22;24016;52.102;11.584;2023-04-24T11:22:39;16.40;99.90
38209;DHT22;24016;52.102;11.584;2023-04-24T11:25:08;16.20;99.90
38209;DHT22;24016;52.102;11.584;2023-04-24T11:27:44;16.80;99.90
38209;DHT22;24016;52.102;11.584;2023-04-24T11:30:11;18.20;99.90
38209;DHT22;24016;52.102;11.584;2023-04-24T11:32:39;19.00;99.90
38209;DHT22;24016;52.102;11.584;2023-04-24T11:35:22;19.90;99.30
38209;DHT22;24016;52.102;11.584;2023-04-24T11:37:51;19.50;98.30
38209;DHT22;24016;52.102;11.584;2023-04-24T11:40:19;18.80;99.10
38209;DHT22;24016;52.102;11.584;2023-04-24T11:42:50;18.00;99.00
38209;DHT22;24016;52.102;11.584;2023-04-24T11:45:28;17.10;99.30
38209;DHT22;24016;52.102;11.584;2023-04-24T11:47:55;16.90;99.70
38209;DHT22;24016;52.102;11.584;2023-04-24T11:50:25;16.40;99.90
38209;DHT22;24016;52.102;11.584;2023-04-24T11:52:51;16.40;99.90
38209;DHT22;24016;52.102;11.584;2023-04-24T11:57:44;17.50;99.90
38209;DHT22;24016;52.102;11.584;2023-04-24T12:00:19;17.50;99.90
38209;DHT22;24016;52.102;11.584;2023-04-24T12:02:46;17.30;99.90
38209;DHT22;24016;52.102;11.584;2023-04-24T12:05:24;16.90;99.90
38209;DHT22;24016;52.102;11.584;2023-04-24T12:07:51;16.50;99.90
38209;DHT22;24016;52.102;11.584;2023-04-24T12:10:21;16.40;99.90
38209;DHT22;24016;52.102;11.584;2023-04-24T12:12:47;16.70;99.90
38209;DHT22;24016;52.102;11.584;2023-04-24T12:15:12;17.20;99.90
38209;DHT22;24016;52.102;11.584;2023-04-24T12:17:41;17.50;99.90
38209;DHT22;24016;52.102;11.584;2023-04-24T12:20:08;17.40;98.20
38209;DHT22;24016;52.102;11.584;2023-04-24T12:22:53;18.60;98.90
38209;DHT22;24016;52.102;11.584;2023-04-24T12:25:22;19.80;97.90
38209;DHT22;24016;52.102;11.584;2023-04-24T12:27:54;19.60;96.40
38209;DHT22;24016;52.102;11.584;2023-04-24T12:30:20;20.50;97.00
38209;DHT22;24016;52.102;11.584;2023-04-24T12:32:49;21.10;94.90
38209;DHT22;24016;52.102;11.584;2023-04-24T12:35:21;20.80;95.80
38209;DHT22;24016;52.102;11.584;2023-04-24T12:37:46;20.50;96.40
38209;DHT22;24016;52.102;11.584;2023-04-24T12:40:13;21.10;94.70
38209;DHT22;24016;52.102;11.584;2023-04-24T12:42:43;21.30;94.00
38209;DHT22;24016;52.102;11.584;2023-04-24T12:45:09;21.00;94.20
38209;DHT22;24016;52.102;11.584;2023-04-24T12:47:37;20.30;95.30
38209;DHT22;24016;52.102;11.584;2023-04-24T12:50:03;19.90;95.80
38209;DHT22;24016;52.102;11.584;2023-04-24T12:52:30;19.80;95.30
38209;DHT22;24016;52.102;11.584;2023-04-24T12:54:57;19.50;96.20
38209;DHT22;24016;52.102;11.584;2023-04-24T12:57:24;19.30;96.40
38209;DHT22;24016;52.102;11.584;2023-04-24T12:59:50;19.50;95.90
38209;DHT22;24016;52.102;11.584;2023-04-24T13:02:16;19.00;96.00
38209;DHT22;24016;52.102;11.584;2023-04-24T13:04:44;18.90;96.50
38209;DHT22;24016;52.102;11.584;2023-04-24T13:07:11;18.80;96.70
38209;DHT22;24016;52.102;11.584;2023-04-24T13:09:37;18.50;97.30
38209;DHT22;24016;52.102;11.584;2023-04-24T13:12:02;18.80;96.80
38209;DHT22;24016;52.102;11.584;2023-04-24T13:14:28;18.60;96.20
38209;DHT22;24016;52.102;11.584;2023-04-24T13:16:54;18.20;96.80
38209;DHT22;24016;52.102;11.584;2023-04-24T13:19:19;17.80;96.70
38209;DHT22;24016;52.102;11.584;2023-04-24T13:21:45;17.50;98.10
38209;DHT22;24016;52.102;11.584;2023-04-24T13:24:11;17.20;98.90
38209;DHT22;24016;52.102;11.584;2023-04-24T13:26:36;16.90;98.30
38209;DHT22;24016;52.102;11.584;2023-04-24T13:29:02;16.80;99.10
38209;DHT22;24016;52.102;11.584;2023-04-24T13:31:29;16.60;98.50
38209;DHT22;24016;52.102;11.584;2023-04-24T13:33:54;16.40;98.70
38209;DHT22;24016;52.102;11.584;2023-04-24T13:36:20;16.00;99.40
38209;DHT22;24016;52.102;11.584;2023-04-24T13:38:45;15.80;99.90
38209;DHT22;24016;52.102;11.584;2023-04-24T13:41:11;15.40;99.90
38209;DHT22;24016;52.102;11.584;2023-04-24T13:43:37;15.30;99.90
38209;DHT22;24016;52.102;11.584;2023-04-24T13:46:02;15.40;99.90
38209;DHT22;24016;52.102;11.584;2023-04-24T13:48:29;15.60;99.90
38209;DHT22;24016;52.102;11.584;2023-04-24T13:50:55;15.50;99.90
38209;DHT22;24016;52.102;11.584;2023-04-24T13:53:21;15.40;99.90
38209;DHT22;24016;52.102;11.584;2023-04-24T13:55:46;15.00;99.90
38209;DHT22;24016;52.102;11.584;2023-04-24T13:58:12;14.50;99.90
38209;DHT22;24016;52.102;11.584;2023-04-24T14:00:37;14.00;99.90
38209;DHT22;24016;52.102;11.584;2023-04-24T14:03:03;13.70;99.90
38209;DHT22;24016;52.102;11.584;2023-04-24T14:05:32;13.40;99.90
38209;DHT22;24016;52.102;11.584;2023-04-24T14:07:58;13.10;99.90
38209;DHT22;24016;52.102;11.584;2023-04-24T14:10:23;12.90;99.90
38209;DHT22;24016;52.102;11.584;2023-04-24T14:12:49;13.40;99.90
38209;DHT22;24016;52.102;11.584;2023-04-24T14:15:17;14.20;99.90
38209;DHT22;24016;52.102;11.584;2023-04-24T14:17:43;15.20;99.90
38209;DHT22;24016;52.102;11.584;2023-04-24T14:20:09;15.70;99.90
38209;DHT22;24016;52.102;11.584;2023-04-24T14:22:34;16.00;99.90
38209;DHT22;24016;52.102;11.584;2023-04-24T14:25:00;15.70;99.90
38209;DHT22;24016;52.102;11.584;2023-04-24T14:27:26;15.60;99.90
38209;DHT22;24016;52.102;11.584;2023-04-24T14:29:52;15.20;99.90
38209;DHT22;24016;52.102;11.584;2023-04-24T14:32:17;14.60;99.90
38209;DHT22;24016;52.102;11.584;2023-04-24T14:34:43;14.40;99.90
38209;DHT22;24016;52.102;11.584;2023-04-24T14:37:09;14.50;99.90
38209;DHT22;24016;52.102;11.584;2023-04-24T14:39:34;14.30;99.90
38209;DHT22;24016;52.102;11.584;2023-04-24T14:42:00;14.00;99.90
38209;DHT22;24016;52.102;11.584;2023-04-24T14:44:26;13.50;99.90
38209;DHT22;24016;52.102;11.584;2023-04-24T14:46:52;13.10;99.90
38209;DHT22;24016;52.102;11.584;2023-04-24T14:49:18;12.70;99.90
38209;DHT22;24016;52.102;11.584;2023-04-24T14:51:44;12.30;99.90
38209;DHT22;24016;52.102;11.584;2023-04-24T14:54:09;12.10;99.90
38209;DHT22;24016;52.102;11.584;2023-04-24T14:56:35;12.00;99.90
38209;DHT22;24016;52.102;11.584;2023-04-24T14:59:01;11.90;99.90
38209;DHT22;24016;52.102;11.584;2023-04-24T15:01:26;11.50;99.90
38209;DHT22;24016;52.102;11.584;2023-04-24T15:03:52;11.50;99.90
38209;DHT22;24016;52.102;11.584;2023-04-24T15:06:18;11.60;99.90
38209;DHT22;24016;52.102;11.584;2023-04-24T15:08:44;11.90;99.90
38209;DHT22;24016;52.102;11.584;2023-04-24T15:11:10;12.20;99.90
38209;DHT22;24016;52.102;11.584;2023-04-24T15:13:36;12.40;99.90
38209;DHT22;24016;52.102;11.584;2023-04-24T15:16:02;12.50;99.90
38209;DHT22;24016;52.102;11.584;2023-04-24T15:18:28;12.20;99.90
38209;DHT22;24016;52.102;11.584;2023-04-24T15:20:54;11.90;99.90
38209;DHT22;24016;52.102;11.584;2023-04-24T15:23:20;11.70;99.90
38209;DHT22;24016;52.102;11.584;2023-04-24T15:25:46;11.70;99.90